sensor_id;sensor_type;location;lat;lon;timestamp;pressure;altitude;pressure_sealevel;temperature;humidity
56594;BME280;42474;51.660;5.824;2024-02-14T00:01:50;1013.2;;;8.8;91
56594;BME280;42474;51.660;5.824;2024-02-14T00:05:50;1013.2;;;8.8;91
56594;BME280;42474;51.660;5.824;2024-02-14T00:09:50;1013;;;8.8;91
56594;BME280;42474;51.660;5.824;2024-02-14T00:13:50;1013;;;8.8;91.5
56594;BME280;42474;51.660;5.824;2024-02-14T00:17:50;1013;;;8.9;91
56594;BME280;42474;51.660;5.824;2024-02-14T00:21:50;1013;;;8.9;91.5
56594;BME280;42474;51.660;5.824;2024-02-14T00:25:50;1013;;;8.9;91.5
56594;BME280;42474;51.660;5.824;2024-02-14T00:29:50;1013;;;8.9;91.5
56594;BME280;42474;51.660;5.824;2024-02-14T00:33:50;1012.9;;;9;91
56594;BME280;42474;51.660;5.824;2024-02-14T00:37:50;1012.9;;;9;91.5
56594;BME280;42474;51.660;5.824;2024-02-14T00:41:50;1012.8;;;9.1;91
56594;BME280;42474;51.660;5.824;2024-02-14T00:45:50;1012.7;;;9.1;91
56594;BME280;42474;51.660;5.824;2024-02-14T00:49:50;1012.7;;;9.1;91
56594;BME280;42474;51.660;5.824;2024-02-14T00:53:50;1012.6;;;9.2;91
56594;BME280;42474;51.660;5.824;2024-02-14T00:57:50;1012.7;;;9.2;91
56594;BME280;42474;51.660;5.824;2024-02-14T01:01:50;1012.7;;;9.2;91
56594;BME280;42474;51.660;5.824;2024-02-14T01:05:50;1012.7;;;9.2;91
56594;BME280;42474;51.660;5.824;2024-02-14T01:09:50;1012.7;;;9.3;91
56594;BME280;42474;51.660;5.824;2024-02-14T01:13:50;1012.7;;;9.3;91
56594;BME280;42474;51.660;5.824;2024-02-14T01:17:50;1012.7;;;9.3;91
56594;BME280;42474;51.660;5.824;2024-02-14T01:21:50;1012.7;;;9.3;91
56594;BME280;42474;51.660;5.824;2024-02-14T01:25:50;1012.6;;;9.4;91
56594;BME280;42474;51.660;5.824;2024-02-14T01:29:50;1012.7;;;9.4;90.5
56594;BME280;42474;51.660;5.824;2024-02-14T01:33:50;1012.7;;;9.5;90.5
56594;BME280;42474;51.660;5.824;2024-02-14T01:37:50;1012.8;;;9.5;90.5
56594;BME280;42474;51.660;5.824;2024-02-14T01:41:50;1012.7;;;9.5;90.5
56594;BME280;42474;51.660;5.824;2024-02-14T01:45:50;1012.7;;;9.6;90.5
56594;BME280;42474;51.660;5.824;2024-02-14T01:49:50;1012.8;;;9.6;90.5
56594;BME280;42474;51.660;5.824;2024-02-14T01:53:50;1012.7;;;9.6;90.5
56594;BME280;42474;51.660;5.824;2024-02-14T01:57:50;1012.7;;;9.6;90
56594;BME280;42474;51.660;5.824;2024-02-14T02:01:50;1012.7;;;9.6;90
56594;BME280;42474;51.660;5.824;2024-02-14T02:05:50;1012.7;;;9.7;90
56594;BME280;42474;51.660;5.824;2024-02-14T02:09:50;1012.7;;;9.7;90
56594;BME280;42474;51.660;5.824;2024-02-14T02:13:50;1012.6;;;9.7;90
56594;BME280;42474;51.660;5.824;2024-02-14T02:17:50;1012.7;;;9.7;90
56594;BME280;42474;51.660;5.824;2024-02-14T02:21:50;1012.7;;;9.8;89.5
56594;BME280;42474;51.660;5.824;2024-02-14T02:25:50;1012.7;;;9.8;89.5
56594;BME280;42474;51.660;5.824;2024-02-14T02:29:50;1012.7;;;9.9;89.5
56594;BME280;42474;51.660;5.824;2024-02-14T02:33:50;1012.7;;;9.9;90
56594;BME280;42474;51.660;5.824;2024-02-14T02:37:50;1012.7;;;9.9;90
56594;BME280;42474;51.660;5.824;2024-02-14T02:41:50;1012.7;;;9.9;90.5
56594;BME280;42474;51.660;5.824;2024-02-14T02:45:50;1012.7;;;9.9;90.5
56594;BME280;42474;51.660;5.824;2024-02-14T02:49:50;1012.7;;;9.9;91
56594;BME280;42474;51.660;5.824;2024-02-14T02:53:50;1012.7;;;9.9;91
56594;BME280;42474;51.660;5.824;2024-02-14T02:57:50;1012.7;;;9.9;91
56594;BME280;42474;51.660;5.824;2024-02-14T03:01:50;1012.7;;;9.9;91
56594;BME280;42474;51.660;5.824;2024-02-14T03:05:50;1012.6;;;9.9;91.5
56594;BME280;42474;51.660;5.824;2024-02-14T03:09:50;1012.6;;;9.9;91.5
56594;BME280;42474;51.660;5.824;2024-02-14T03:13:50;1012.7;;;9.9;91.5
56594;BME280;42474;51.660;5.824;2024-02-14T03:17:50;1012.7;;;9.9;92
56594;BME280;42474;51.660;5.824;2024-02-14T03:21:52;1012.7;;;9.9;92
56594;BME280;42474;51.660;5.824;2024-02-14T03:25:50;1012.8;;;10;92
56594;BME280;42474;51.660;5.824;2024-02-14T03:33:50;1012.8;;;10;92
56594;BME280;42474;51.660;5.824;2024-02-14T03:37:50;1012.7;;;10;92
56594;BME280;42474;51.660;5.824;2024-02-14T03:41:50;1012.8;;;10;91.5
56594;BME280;42474;51.660;5.824;2024-02-14T03:45:50;1012.9;;;10.1;91.5
56594;BME280;42474;51.660;5.824;2024-02-14T03:49:50;1012.9;;;10.1;91.5
56594;BME280;42474;51.660;5.824;2024-02-14T03:53:50;1012.9;;;10.2;91
56594;BME280;42474;51.660;5.824;2024-02-14T03:57:50;1012.8;;;10.2;91
56594;BME280;42474;51.660;5.824;2024-02-14T04:01:50;1012.8;;;10.2;91
56594;BME280;42474;51.660;5.824;2024-02-14T04:05:50;1012.9;;;10.3;91
56594;BME280;42474;51.660;5.824;2024-02-14T04:09:50;1012.9;;;10.3;91
56594;BME280;42474;51.660;5.824;2024-02-14T04:13:50;1012.9;;;10.3;91
56594;BME280;42474;51.660;5.824;2024-02-14T04:17:50;1013;;;10.4;91
56594;BME280;42474;51.660;5.824;2024-02-14T04:21:50;1013;;;10.4;91
56594;BME280;42474;51.660;5.824;2024-02-14T04:25:51;1013;;;10.4;91
56594;BME280;42474;51.660;5.824;2024-02-14T04:29:50;1013;;;10.4;91
56594;BME280;42474;51.660;5.824;2024-02-14T04:33:50;1013.1;;;10.4;91
56594;BME280;42474;51.660;5.824;2024-02-14T04:37:50;1013.1;;;10.4;91
56594;BME280;42474;51.660;5.824;2024-02-14T04:41:50;1013.2;;;10.4;91
56594;BME280;42474;51.660;5.824;2024-02-14T04:45:50;1013.2;;;10.5;90.5
56594;BME280;42474;51.660;5.824;2024-02-14T04:49:50;1013.2;;;10.5;90.5
56594;BME280;42474;51.660;5.824;2024-02-14T04:53:50;1013.2;;;10.5;90.5
56594;BME280;42474;51.660;5.824;2024-02-14T04:57:50;1013.3;;;10.5;90.5
56594;BME280;42474;51.660;5.824;2024-02-14T05:01:50;1013.3;;;10.5;91
56594;BME280;42474;51.660;5.824;2024-02-14T05:05:50;1013.4;;;10.5;91.5
56594;BME280;42474;51.660;5.824;2024-02-14T05:09:50;1013.4;;;10.5;92
56594;BME280;42474;51.660;5.824;2024-02-14T05:13:50;1013.4;;;10.5;92
56594;BME280;42474;51.660;5.824;2024-02-14T05:17:50;1013.4;;;10.5;92
56594;BME280;42474;51.660;5.824;2024-02-14T05:21:50;1013.5;;;10.5;92.5
56594;BME280;42474;51.660;5.824;2024-02-14T05:25:50;1013.4;;;10.5;92
56594;BME280;42474;51.660;5.824;2024-02-14T05:29:50;1013.5;;;10.5;92.5
56594;BME280;42474;51.660;5.824;2024-02-14T05:33:50;1013.5;;;10.5;92.5
56594;BME280;42474;51.660;5.824;2024-02-14T05:37:50;1013.5;;;10.6;93
56594;BME280;42474;51.660;5.824;2024-02-14T05:41:50;1013.5;;;10.6;93
56594;BME280;42474;51.660;5.824;2024-02-14T05:45:50;1013.6;;;10.6;93.5
56594;BME280;42474;51.660;5.824;2024-02-14T05:49:50;1013.5;;;10.6;93.5
56594;BME280;42474;51.660;5.824;2024-02-14T05:53:50;1013.6;;;10.6;93.5
56594;BME280;42474;51.660;5.824;2024-02-14T05:57:50;1013.5;;;10.6;94
56594;BME280;42474;51.660;5.824;2024-02-14T06:01:50;1013.6;;;10.6;94
56594;BME280;42474;51.660;5.824;2024-02-14T06:05:50;1013.6;;;10.6;94.5
56594;BME280;42474;51.660;5.824;2024-02-14T06:09:50;1013.6;;;10.6;94.5
56594;BME280;42474;51.660;5.824;2024-02-14T06:13:50;1013.7;;;10.6;94
56594;BME280;42474;51.660;5.824;2024-02-14T06:17:50;1013.7;;;10.6;94
56594;BME280;42474;51.660;5.824;2024-02-14T06:25:50;1013.8;;;10.6;94.5
56594;BME280;42474;51.660;5.824;2024-02-14T06:29:50;1013.9;;;10.6;94.5
56594;BME280;42474;51.660;5.824;2024-02-14T06:33:51;1013.9;;;10.6;94.5
56594;BME280;42474;51.660;5.824;2024-02-14T06:41:50;1014.1;;;10.6;94.5
56594;BME280;42474;51.660;5.824;2024-02-14T06:45:50;1014.1;;;10.6;95
56594;BME280;42474;51.660;5.824;2024-02-14T06:49:50;1014.1;;;10.6;95
56594;BME280;42474;51.660;5.824;2024-02-14T06:53:50;1014.1;;;10.6;95
56594;BME280;42474;51.660;5.824;2024-02-14T06:57:50;1014.1;;;10.7;95
56594;BME280;42474;51.660;5.824;2024-02-14T07:01:50;1014.1;;;10.7;95
56594;BME280;42474;51.660;5.824;2024-02-14T07:05:50;1014.2;;;10.7;95
56594;BME280;42474;51.660;5.824;2024-02-14T07:09:50;1014.2;;;10.7;95
56594;BME280;42474;51.660;5.824;2024-02-14T07:13:50;1014.3;;;10.7;95
56594;BME280;42474;51.660;5.824;2024-02-14T07:17:50;1014.2;;;10.7;95
56594;BME280;42474;51.660;5.824;2024-02-14T07:21:50;1014.3;;;10.7;95
56594;BME280;42474;51.660;5.824;2024-02-14T07:25:50;1014.3;;;10.8;95
56594;BME280;42474;51.660;5.824;2024-02-14T07:29:50;1014.3;;;10.8;95
56594;BME280;42474;51.660;5.824;2024-02-14T07:33:50;1014.3;;;10.8;95
56594;BME280;42474;51.660;5.824;2024-02-14T07:37:50;1014.2;;;10.8;95
56594;BME280;42474;51.660;5.824;2024-02-14T07:41:50;1014.2;;;10.9;94.5
56594;BME280;42474;51.660;5.824;2024-02-14T07:45:50;1014.3;;;10.9;94.5
56594;BME280;42474;51.660;5.824;2024-02-14T07:49:50;1014.3;;;10.9;94.5
56594;BME280;42474;51.660;5.824;2024-02-14T07:53:50;1014.3;;;10.9;94.5
56594;BME280;42474;51.660;5.824;2024-02-14T07:57:50;1014.3;;;11;94.5
56594;BME280;42474;51.660;5.824;2024-02-14T08:01:50;1014.3;;;11;95
56594;BME280;42474;51.660;5.824;2024-02-14T08:05:50;1014.4;;;10.9;95
56594;BME280;42474;51.660;5.824;2024-02-14T08:09:50;1014.4;;;10.9;95.5
56594;BME280;42474;51.660;5.824;2024-02-14T08:13:50;1014.4;;;10.9;95.5
56594;BME280;42474;51.660;5.824;2024-02-14T08:17:50;1014.4;;;10.9;95.5
56594;BME280;42474;51.660;5.824;2024-02-14T08:21:50;1014.5;;;10.9;95.5
56594;BME280;42474;51.660;5.824;2024-02-14T08:25:50;1014.5;;;10.9;95.5
56594;BME280;42474;51.660;5.824;2024-02-14T08:29:50;1014.5;;;10.9;96
56594;BME280;42474;51.660;5.824;2024-02-14T08:33:50;1014.5;;;11;96
56594;BME280;42474;51.660;5.824;2024-02-14T08:37:50;1014.6;;;10.9;96
56594;BME280;42474;51.660;5.824;2024-02-14T08:41:50;1014.5;;;11;96
56594;BME280;42474;51.660;5.824;2024-02-14T08:45:50;1014.5;;;11;96
56594;BME280;42474;51.660;5.824;2024-02-14T08:49:50;1014.5;;;11;96
56594;BME280;42474;51.660;5.824;2024-02-14T08:53:50;1014.5;;;11;96
56594;BME280;42474;51.660;5.824;2024-02-14T08:57:50;1014.5;;;11;96.5
56594;BME280;42474;51.660;5.824;2024-02-14T09:01:50;1014.6;;;11;96
56594;BME280;42474;51.660;5.824;2024-02-14T09:05:50;1014.6;;;11.1;96
56594;BME280;42474;51.660;5.824;2024-02-14T09:09:50;1014.6;;;11.1;96
56594;BME280;42474;51.660;5.824;2024-02-14T09:13:50;1014.6;;;11.1;96
56594;BME280;42474;51.660;5.824;2024-02-14T09:17:50;1014.6;;;11.2;96
56594;BME280;42474;51.660;5.824;2024-02-14T09:21:50;1014.6;;;11.2;96.5
56594;BME280;42474;51.660;5.824;2024-02-14T09:25:50;1014.7;;;11.3;96
56594;BME280;42474;51.660;5.824;2024-02-14T09:29:50;1014.8;;;11.3;96
56594;BME280;42474;51.660;5.824;2024-02-14T09:33:52;1014.9;;;11.4;96
56594;BME280;42474;51.660;5.824;2024-02-14T09:37:50;1014.9;;;11.4;95.5
56594;BME280;42474;51.660;5.824;2024-02-14T09:41:51;1014.9;;;11.4;95
56594;BME280;42474;51.660;5.824;2024-02-14T09:45:50;1014.8;;;11.5;95
56594;BME280;42474;51.660;5.824;2024-02-14T09:49:50;1014.8;;;11.5;95
56594;BME280;42474;51.660;5.824;2024-02-14T09:53:50;1014.9;;;11.6;94
56594;BME280;42474;51.660;5.824;2024-02-14T09:57:50;1014.9;;;11.6;93.5
56594;BME280;42474;51.660;5.824;2024-02-14T10:01:50;1015;;;11.7;93.5
56594;BME280;42474;51.660;5.824;2024-02-14T10:05:51;1015.1;;;11.7;94
56594;BME280;42474;51.660;5.824;2024-02-14T10:09:50;1015.1;;;11.7;93.5
56594;BME280;42474;51.660;5.824;2024-02-14T10:13:50;1015.1;;;11.7;93.5
56594;BME280;42474;51.660;5.824;2024-02-14T10:17:51;1015;;;11.8;93.5
56594;BME280;42474;51.660;5.824;2024-02-14T10:21:57;1015;;;11.9;93.5
56594;BME280;42474;51.660;5.824;2024-02-14T10:25:52;1015;;;12;93.5
56594;BME280;42474;51.660;5.824;2024-02-14T10:29:50;1015;;;12;93
56594;BME280;42474;51.660;5.824;2024-02-14T10:33:50;1015.1;;;12.2;92.5
56594;BME280;42474;51.660;5.824;2024-02-14T10:37:50;1015.2;;;12.2;92.5
56594;BME280;42474;51.660;5.824;2024-02-14T10:41:50;1015.2;;;12.1;92.5
56594;BME280;42474;51.660;5.824;2024-02-14T10:45:50;1015.2;;;12.1;92.5
56594;BME280;42474;51.660;5.824;2024-02-14T10:49:50;1015.3;;;12.2;92.5
56594;BME280;42474;51.660;5.824;2024-02-14T10:53:50;1015.3;;;12.1;92.5
56594;BME280;42474;51.660;5.824;2024-02-14T10:57:50;1015.3;;;12.1;92.5
56594;BME280;42474;51.660;5.824;2024-02-14T11:01:50;1015.3;;;12.2;92.5
56594;BME280;42474;51.660;5.824;2024-02-14T11:05:50;1015.3;;;12.2;93
56594;BME280;42474;51.660;5.824;2024-02-14T11:09:59;1015.2;;;12.2;92.5
56594;BME280;42474;51.660;5.824;2024-02-14T11:13:52;1015.2;;;12.2;92.5
56594;BME280;42474;51.660;5.824;2024-02-14T11:18:02;1015.3;;;12.2;92.5
56594;BME280;42474;51.660;5.824;2024-02-14T11:21:50;1015.1;;;12.3;92.5
56594;BME280;42474;51.660;5.824;2024-02-14T11:25:50;1015.1;;;12.3;93
56594;BME280;42474;51.660;5.824;2024-02-14T11:29:51;1015.1;;;12.3;93
56594;BME280;42474;51.660;5.824;2024-02-14T11:33:50;1015.1;;;12.4;93
56594;BME280;42474;51.660;5.824;2024-02-14T11:37:52;1015;;;12.4;93
56594;BME280;42474;51.660;5.824;2024-02-14T11:41:50;1015;;;12.5;92.5
56594;BME280;42474;51.660;5.824;2024-02-14T11:45:50;1015.1;;;12.5;93
56594;BME280;42474;51.660;5.824;2024-02-14T11:49:50;1015;;;12.5;93
56594;BME280;42474;51.660;5.824;2024-02-14T11:53:50;1015;;;12.5;93
56594;BME280;42474;51.660;5.824;2024-02-14T11:57:50;1015;;;12.5;93
56594;BME280;42474;51.660;5.824;2024-02-14T12:01:50;1014.9;;;12.6;93
56594;BME280;42474;51.660;5.824;2024-02-14T12:05:51;1014.9;;;12.6;93
56594;BME280;42474;51.660;5.824;2024-02-14T12:09:50;1014.9;;;12.6;92.5
56594;BME280;42474;51.660;5.824;2024-02-14T12:13:50;1014.9;;;12.6;93
56594;BME280;42474;51.660;5.824;2024-02-14T12:17:50;1014.9;;;12.5;93
56594;BME280;42474;51.660;5.824;2024-02-14T12:21:50;1014.9;;;12.5;93.5
56594;BME280;42474;51.660;5.824;2024-02-14T12:25:50;1015;;;12.5;93.5
56594;BME280;42474;51.660;5.824;2024-02-14T12:29:51;1014.9;;;12.4;94
56594;BME280;42474;51.660;5.824;2024-02-14T12:33:50;1014.8;;;12.4;94
56594;BME280;42474;51.660;5.824;2024-02-14T12:37:50;1014.9;;;12.4;94
56594;BME280;42474;51.660;5.824;2024-02-14T12:41:50;1015;;;12.3;94.5
56594;BME280;42474;51.660;5.824;2024-02-14T12:45:50;1014.9;;;12.3;95
56594;BME280;42474;51.660;5.824;2024-02-14T12:49:50;1014.9;;;12.3;95
56594;BME280;42474;51.660;5.824;2024-02-14T12:53:50;1014.9;;;12.3;95
56594;BME280;42474;51.660;5.824;2024-02-14T12:57:50;1014.8;;;12.3;95
56594;BME280;42474;51.660;5.824;2024-02-14T13:01:50;1014.8;;;12.2;95.5
56594;BME280;42474;51.660;5.824;2024-02-14T13:05:50;1014.7;;;12.2;96
56594;BME280;42474;51.660;5.824;2024-02-14T13:09:50;1014.7;;;12.2;96.5
56594;BME280;42474;51.660;5.824;2024-02-14T13:13:50;1014.7;;;12.2;96.5
56594;BME280;42474;51.660;5.824;2024-02-14T13:17:51;1014.7;;;12.3;96
56594;BME280;42474;51.660;5.824;2024-02-14T13:21:50;1014.6;;;12.3;96
56594;BME280;42474;51.660;5.824;2024-02-14T13:25:50;1014.7;;;12.4;96
56594;BME280;42474;51.660;5.824;2024-02-14T13:29:50;1014.7;;;12.4;96
56594;BME280;42474;51.660;5.824;2024-02-14T13:33:50;1014.6;;;12.4;95.5
56594;BME280;42474;51.660;5.824;2024-02-14T13:37:50;1014.6;;;12.4;95.5
56594;BME280;42474;51.660;5.824;2024-02-14T13:41:50;1014.6;;;12.4;96
56594;BME280;42474;51.660;5.824;2024-02-14T13:45:50;1014.6;;;12.4;95.5
56594;BME280;42474;51.660;5.824;2024-02-14T13:49:50;1014.6;;;12.5;95.5
56594;BME280;42474;51.660;5.824;2024-02-14T13:53:50;1014.7;;;12.5;96
56594;BME280;42474;51.660;5.824;2024-02-14T13:57:50;1014.7;;;12.5;95.5
56594;BME280;42474;51.660;5.824;2024-02-14T14:01:50;1014.7;;;12.5;96
56594;BME280;42474;51.660;5.824;2024-02-14T14:05:51;1014.6;;;12.5;95.5
56594;BME280;42474;51.660;5.824;2024-02-14T14:09:50;1014.6;;;12.5;96
56594;BME280;42474;51.660;5.824;2024-02-14T14:13:50;1014.6;;;12.6;96
56594;BME280;42474;51.660;5.824;2024-02-14T14:17:50;1014.6;;;12.6;96
56594;BME280;42474;51.660;5.824;2024-02-14T14:21:50;1014.6;;;12.6;96
56594;BME280;42474;51.660;5.824;2024-02-14T14:25:50;1014.6;;;12.6;96
56594;BME280;42474;51.660;5.824;2024-02-14T14:29:50;1014.5;;;12.6;96.5
56594;BME280;42474;51.660;5.824;2024-02-14T14:33:50;1014.6;;;12.6;96.5
56594;BME280;42474;51.660;5.824;2024-02-14T14:37:50;1014.6;;;12.6;96.5
56594;BME280;42474;51.660;5.824;2024-02-14T14:41:50;1014.5;;;12.6;97
56594;BME280;42474;51.660;5.824;2024-02-14T14:45:50;1014.5;;;12.5;97
56594;BME280;42474;51.660;5.824;2024-02-14T14:53:51;1014.6;;;12.5;97
56594;BME280;42474;51.660;5.824;2024-02-14T14:57:50;1014.5;;;12.5;97.5
56594;BME280;42474;51.660;5.824;2024-02-14T15:01:50;1014.5;;;12.5;97.5
56594;BME280;42474;51.660;5.824;2024-02-14T15:05:50;1014.5;;;12.5;97.5
56594;BME280;42474;51.660;5.824;2024-02-14T15:09:51;1014.5;;;12.5;97.5
56594;BME280;42474;51.660;5.824;2024-02-14T15:13:50;1014.4;;;12.5;97.5
56594;BME280;42474;51.660;5.824;2024-02-14T15:17:50;1014.4;;;12.5;97.5
56594;BME280;42474;51.660;5.824;2024-02-14T15:21:50;1014.5;;;12.6;97.5
56594;BME280;42474;51.660;5.824;2024-02-14T15:25:50;1014.5;;;12.6;97
56594;BME280;42474;51.660;5.824;2024-02-14T15:29:50;1014.5;;;12.7;97
56594;BME280;42474;51.660;5.824;2024-02-14T15:33:50;1014.5;;;12.7;97
56594;BME280;42474;51.660;5.824;2024-02-14T15:37:50;1014.6;;;12.7;97
56594;BME280;42474;51.660;5.824;2024-02-14T15:41:50;1014.6;;;12.7;97
56594;BME280;42474;51.660;5.824;2024-02-14T15:45:50;1014.6;;;12.7;97
56594;BME280;42474;51.660;5.824;2024-02-14T15:49:50;1014.6;;;12.7;97
56594;BME280;42474;51.660;5.824;2024-02-14T15:53:50;1014.5;;;12.8;97
56594;BME280;42474;51.660;5.824;2024-02-14T15:57:50;1014.5;;;12.8;97.5
56594;BME280;42474;51.660;5.824;2024-02-14T16:01:50;1014.4;;;12.8;97
56594;BME280;42474;51.660;5.824;2024-02-14T16:05:50;1014.4;;;12.8;97
56594;BME280;42474;51.660;5.824;2024-02-14T16:09:50;1014.4;;;12.8;97
56594;BME280;42474;51.660;5.824;2024-02-14T16:13:51;1014.5;;;12.8;97
56594;BME280;42474;51.660;5.824;2024-02-14T16:17:50;1014.5;;;12.9;97
56594;BME280;42474;51.660;5.824;2024-02-14T16:21:50;1014.5;;;12.9;97
56594;BME280;42474;51.660;5.824;2024-02-14T16:25:50;1014.5;;;12.9;97
56594;BME280;42474;51.660;5.824;2024-02-14T16:29:50;1014.4;;;12.9;97
56594;BME280;42474;51.660;5.824;2024-02-14T16:33:50;1014.5;;;12.9;96.5
56594;BME280;42474;51.660;5.824;2024-02-14T16:37:50;1014.5;;;12.9;96.5
56594;BME280;42474;51.660;5.824;2024-02-14T16:41:50;1014.5;;;12.9;97
56594;BME280;42474;51.660;5.824;2024-02-14T16:45:50;1014.5;;;12.9;97
56594;BME280;42474;51.660;5.824;2024-02-14T16:49:50;1014.4;;;12.9;97
56594;BME280;42474;51.660;5.824;2024-02-14T16:53:50;1014.5;;;12.9;97
56594;BME280;42474;51.660;5.824;2024-02-14T16:57:50;1014.6;;;12.9;97
56594;BME280;42474;51.660;5.824;2024-02-14T17:01:50;1014.6;;;12.9;97
56594;BME280;42474;51.660;5.824;2024-02-14T17:05:50;1014.7;;;12.9;97
56594;BME280;42474;51.660;5.824;2024-02-14T17:09:50;1014.7;;;12.9;96.5
56594;BME280;42474;51.660;5.824;2024-02-14T17:13:50;1014.8;;;13;96.5
56594;BME280;42474;51.660;5.824;2024-02-14T17:17:50;1014.8;;;12.9;96.5
56594;BME280;42474;51.660;5.824;2024-02-14T17:21:50;1014.9;;;12.9;97
56594;BME280;42474;51.660;5.824;2024-02-14T17:25:51;1014.9;;;12.9;97
56594;BME280;42474;51.660;5.824;2024-02-14T17:29:50;1014.9;;;12.9;97
56594;BME280;42474;51.660;5.824;2024-02-14T17:33:50;1015;;;12.9;96.5
56594;BME280;42474;51.660;5.824;2024-02-14T17:37:50;1015;;;13;96.5
56594;BME280;42474;51.660;5.824;2024-02-14T17:41:50;1015;;;13;96.5
56594;BME280;42474;51.660;5.824;2024-02-14T17:45:50;1015.1;;;12.9;96.5
56594;BME280;42474;51.660;5.824;2024-02-14T17:49:50;1015.2;;;13;96.5
56594;BME280;42474;51.660;5.824;2024-02-14T17:53:50;1015.2;;;13;96.5
56594;BME280;42474;51.660;5.824;2024-02-14T17:57:50;1015.2;;;13;96.5
56594;BME280;42474;51.660;5.824;2024-02-14T18:01:50;1015.3;;;13;96.5
56594;BME280;42474;51.660;5.824;2024-02-14T18:05:50;1015.3;;;13;96.5
56594;BME280;42474;51.660;5.824;2024-02-14T18:09:50;1015.4;;;13;96.5
56594;BME280;42474;51.660;5.824;2024-02-14T18:13:50;1015.4;;;13;96
56594;BME280;42474;51.660;5.824;2024-02-14T18:17:50;1015.4;;;13;96.5
56594;BME280;42474;51.660;5.824;2024-02-14T18:21:50;1015.5;;;13;96
56594;BME280;42474;51.660;5.824;2024-02-14T18:25:50;1015.5;;;13.1;96
56594;BME280;42474;51.660;5.824;2024-02-14T18:29:50;1015.5;;;13;96
56594;BME280;42474;51.660;5.824;2024-02-14T18:33:50;1015.5;;;13.1;96
56594;BME280;42474;51.660;5.824;2024-02-14T18:37:50;1015.6;;;13.1;95.5
56594;BME280;42474;51.660;5.824;2024-02-14T18:41:50;1015.6;;;13.1;95.5
56594;BME280;42474;51.660;5.824;2024-02-14T18:45:50;1015.6;;;13.1;95
56594;BME280;42474;51.660;5.824;2024-02-14T18:49:51;1015.6;;;13.1;95
56594;BME280;42474;51.660;5.824;2024-02-14T18:53:50;1015.6;;;13.1;95
56594;BME280;42474;51.660;5.824;2024-02-14T18:57:50;1015.6;;;13.1;95
56594;BME280;42474;51.660;5.824;2024-02-14T19:01:50;1015.6;;;13.1;95
56594;BME280;42474;51.660;5.824;2024-02-14T19:05:50;1015.5;;;13.1;95
56594;BME280;42474;51.660;5.824;2024-02-14T19:09:50;1015.6;;;13.2;95
56594;BME280;42474;51.660;5.824;2024-02-14T19:13:50;1015.6;;;13.2;94.5
56594;BME280;42474;51.660;5.824;2024-02-14T19:17:50;1015.6;;;13.2;94.5
56594;BME280;42474;51.660;5.824;2024-02-14T19:21:50;1015.6;;;13.2;94.5
56594;BME280;42474;51.660;5.824;2024-02-14T19:25:50;1015.6;;;13.2;94.5
56594;BME280;42474;51.660;5.824;2024-02-14T19:29:50;1015.5;;;13.2;94.5
56594;BME280;42474;51.660;5.824;2024-02-14T19:33:50;1015.6;;;13.2;94.5
56594;BME280;42474;51.660;5.824;2024-02-14T19:37:50;1015.6;;;13.3;94
56594;BME280;42474;51.660;5.824;2024-02-14T19:41:50;1015.7;;;13.3;94.5
56594;BME280;42474;51.660;5.824;2024-02-14T19:45:50;1015.7;;;13.2;94.5
56594;BME280;42474;51.660;5.824;2024-02-14T19:49:50;1015.6;;;13.2;94.5
56594;BME280;42474;51.660;5.824;2024-02-14T19:53:50;1015.6;;;13.2;94.5
56594;BME280;42474;51.660;5.824;2024-02-14T19:57:50;1015.6;;;13.2;94.5
56594;BME280;42474;51.660;5.824;2024-02-14T20:01:50;1015.6;;;13.3;94
56594;BME280;42474;51.660;5.824;2024-02-14T20:05:50;1015.7;;;13.3;94.5
56594;BME280;42474;51.660;5.824;2024-02-14T20:09:50;1015.7;;;13.2;94.5
56594;BME280;42474;51.660;5.824;2024-02-14T20:13:50;1015.7;;;13.3;94.5
56594;BME280;42474;51.660;5.824;2024-02-14T20:17:50;1015.8;;;13.2;95
56594;BME280;42474;51.660;5.824;2024-02-14T20:21:50;1015.8;;;13.2;95
56594;BME280;42474;51.660;5.824;2024-02-14T20:25:50;1015.8;;;13.2;95
56594;BME280;42474;51.660;5.824;2024-02-14T20:29:50;1015.8;;;13.2;95
56594;BME280;42474;51.660;5.824;2024-02-14T20:33:50;1015.8;;;13.2;95.5
56594;BME280;42474;51.660;5.824;2024-02-14T20:37:50;1015.8;;;13.1;95.5
56594;BME280;42474;51.660;5.824;2024-02-14T20:41:50;1015.8;;;13.1;95.5
56594;BME280;42474;51.660;5.824;2024-02-14T20:45:50;1015.9;;;13.1;96
56594;BME280;42474;51.660;5.824;2024-02-14T20:49:50;1015.8;;;13.1;96
56594;BME280;42474;51.660;5.824;2024-02-14T20:53:50;1015.8;;;13.1;95.5
56594;BME280;42474;51.660;5.824;2024-02-14T20:57:50;1015.8;;;13.1;96
56594;BME280;42474;51.660;5.824;2024-02-14T21:01:50;1015.9;;;13.1;96
56594;BME280;42474;51.660;5.824;2024-02-14T21:05:50;1015.9;;;13.1;96
56594;BME280;42474;51.660;5.824;2024-02-14T21:09:50;1016;;;13.1;96
56594;BME280;42474;51.660;5.824;2024-02-14T21:13:50;1015.9;;;13.1;96
56594;BME280;42474;51.660;5.824;2024-02-14T21:17:50;1015.9;;;13.2;95.5
56594;BME280;42474;51.660;5.824;2024-02-14T21:21:50;1016;;;13.2;95.5
56594;BME280;42474;51.660;5.824;2024-02-14T21:25:50;1016;;;13.2;95.5
56594;BME280;42474;51.660;5.824;2024-02-14T21:29:50;1016;;;13.1;95.5
56594;BME280;42474;51.660;5.824;2024-02-14T21:33:50;1016;;;13.1;96
56594;BME280;42474;51.660;5.824;2024-02-14T21:37:51;1016;;;13.1;96
56594;BME280;42474;51.660;5.824;2024-02-14T21:41:50;1016;;;13.1;96.5
56594;BME280;42474;51.660;5.824;2024-02-14T21:45:50;1016.1;;;13.1;96.5
56594;BME280;42474;51.660;5.824;2024-02-14T21:49:50;1016;;;13.1;96.5
56594;BME280;42474;51.660;5.824;2024-02-14T21:53:50;1016;;;13.1;96.5
56594;BME280;42474;51.660;5.824;2024-02-14T21:57:50;1016;;;13;97
56594;BME280;42474;51.660;5.824;2024-02-14T22:01:50;1016;;;13;97
56594;BME280;42474;51.660;5.824;2024-02-14T22:05:50;1016.1;;;13;97
56594;BME280;42474;51.660;5.824;2024-02-14T22:09:53;1016;;;13;97.5
56594;BME280;42474;51.660;5.824;2024-02-14T22:13:50;1016;;;13;98
56594;BME280;42474;51.660;5.824;2024-02-14T22:17:50;1016;;;13;98
56594;BME280;42474;51.660;5.824;2024-02-14T22:21:50;1016;;;13;97.5
56594;BME280;42474;51.660;5.824;2024-02-14T22:25:50;1015.9;;;13;98
56594;BME280;42474;51.660;5.824;2024-02-14T22:29:50;1015.9;;;13;98
56594;BME280;42474;51.660;5.824;2024-02-14T22:33:50;1015.9;;;13;97.5
56594;BME280;42474;51.660;5.824;2024-02-14T22:37:50;1016;;;13;98
56594;BME280;42474;51.660;5.824;2024-02-14T22:41:50;1016;;;12.9;98
56594;BME280;42474;51.660;5.824;2024-02-14T22:45:50;1016;;;12.9;98
56594;BME280;42474;51.660;5.824;2024-02-14T22:49:50;1016;;;13;98
56594;BME280;42474;51.660;5.824;2024-02-14T22:53:50;1016;;;13;98
56594;BME280;42474;51.660;5.824;2024-02-14T22:57:50;1016;;;13;98
56594;BME280;42474;51.660;5.824;2024-02-14T23:01:50;1016.1;;;13;98
56594;BME280;42474;51.660;5.824;2024-02-14T23:05:50;1016;;;12.9;98
56594;BME280;42474;51.660;5.824;2024-02-14T23:09:50;1016.1;;;13;98
56594;BME280;42474;51.660;5.824;2024-02-14T23:13:50;1016;;;13;98